Time;durP1;ratioP1;P1;durP2;ratioP2;P2;SDS_P1;SDS_P2;PMS_P1;PMS_P2;Temp;Humidity;BMP_temperature;BMP_pressure;BME280_temperature;BME280_humidity;BME280_pressure;Samples;Min_cycle;Max_cycle;Signal;HPM_P1;HPM_P2
2022/12/18 00:01:33;;;;;;;77.67;58.47;;;11.20;54.70;;;;;;4929735;28;89478;-50
2022/12/18 00:04:00;;;;;;;78.87;59.10;;;11.20;54.70;;;;;;4922000;28;90819;-52
2022/12/18 00:06:27;;;;;;;77.67;58.73;;;11.20;54.60;;;;;;4931397;28;90482;-50
2022/12/18 00:08:55;;;;;;;77.77;58.37;;;11.20;54.50;;;;;;4929702;28;89757;-49
2022/12/18 00:11:22;;;;;;;78.50;58.47;;;11.20;54.40;;;;;;4927049;28;89687;-51
2022/12/18 00:13:49;;;;;;;77.67;58.67;;;11.20;54.40;;;;;;4927315;28;89531;-49
2022/12/18 00:16:21;;;;;;;79.60;58.77;;;11.10;54.40;;;;;;4930579;28;89254;-50
2022/12/18 00:18:52;;;;;;;78.73;59.03;;;11.20;54.40;;;;;;4933053;28;90058;-49
2022/12/18 00:21:19;;;;;;;78.30;58.70;;;11.10;54.40;;;;;;4933055;28;88462;-49
2022/12/18 00:23:45;;;;;;;77.50;58.60;;;11.10;54.40;;;;;;4935727;28;89513;-48
2022/12/18 00:26:16;;;;;;;81.43;59.77;;;11.10;54.40;;;;;;4929537;28;89790;-49
2022/12/18 00:28:42;;;;;;;81.00;58.83;;;11.10;54.50;;;;;;4936686;28;90143;-52
2022/12/18 00:31:11;;;;;;;78.40;58.43;;;11.00;54.50;;;;;;4932493;28;89057;-50
2022/12/18 00:33:37;;;;;;;77.90;58.93;;;11.00;54.30;;;;;;4928693;28;89233;-48
2022/12/18 00:36:05;;;;;;;79.93;58.43;;;11.00;54.20;;;;;;4932500;28;89794;-51
2022/12/18 00:38:30;;;;;;;73.37;57.20;;;11.00;54.40;;;;;;4933021;28;89057;-50
2022/12/18 00:40:56;;;;;;;79.47;58.93;;;11.00;54.30;;;;;;4928698;28;90396;-51
2022/12/18 00:43:21;;;;;;;77.70;58.40;;;11.00;54.30;;;;;;4934094;28;90003;-51
2022/12/18 00:45:47;;;;;;;76.47;58.87;;;11.00;54.20;;;;;;4928098;28;90380;-51
2022/12/18 00:48:13;;;;;;;77.63;58.47;;;10.90;54.10;;;;;;4940624;28;96267;-52
2022/12/18 00:50:38;;;;;;;77.30;58.37;;;10.90;54.10;;;;;;4928858;28;96812;-48
2022/12/18 00:53:04;;;;;;;77.50;59.67;;;10.90;54.10;;;;;;4928664;28;90045;-53
2022/12/18 00:55:30;;;;;;;81.27;58.87;;;10.90;54.10;;;;;;4926372;28;89473;-53
2022/12/18 00:57:56;;;;;;;77.93;58.67;;;10.90;54.00;;;;;;4930074;28;90207;-53
2022/12/18 01:00:22;;;;;;;79.40;59.27;;;10.90;54.10;;;;;;4929476;28;88976;-53
2022/12/18 01:02:48;;;;;;;76.07;57.63;;;10.80;54.10;;;;;;4931851;28;95607;-51
2022/12/18 01:05:14;;;;;;;78.47;58.53;;;10.80;53.90;;;;;;4927038;28;89254;-52
2022/12/18 01:07:40;;;;;;;75.50;58.10;;;10.80;54.30;;;;;;4924792;28;90293;-53
2022/12/18 01:10:07;;;;;;;79.87;58.47;;;10.80;54.20;;;;;;4935682;28;88632;-53
2022/12/18 01:12:33;;;;;;;78.73;58.60;;;10.80;54.10;;;;;;4934151;28;92556;-51
2022/12/18 01:14:59;;;;;;;75.60;57.63;;;10.70;54.00;;;;;;4925722;28;90437;-54
2022/12/18 01:17:25;;;;;;;79.30;58.00;;;10.80;54.10;;;;;;4922225;28;93880;-51
2022/12/18 01:19:50;;;;;;;76.00;57.73;;;10.70;53.90;;;;;;4937334;28;89519;-51
2022/12/18 01:22:16;;;;;;;78.53;57.93;;;10.70;53.90;;;;;;4927998;28;91136;-50
2022/12/18 01:24:41;;;;;;;77.67;58.57;;;10.70;53.80;;;;;;4940356;28;89259;-49
2022/12/18 01:27:07;;;;;;;80.40;58.70;;;10.70;53.80;;;;;;4929307;28;91334;-52
2022/12/18 01:29:33;;;;;;;74.67;58.47;;;10.80;53.80;;;;;;4929810;28;89202;-50
2022/12/18 01:31:58;;;;;;;77.73;57.90;;;10.80;53.70;;;;;;4929228;28;89569;-53
2022/12/18 01:34:24;;;;;;;77.20;58.63;;;10.80;53.60;;;;;;4933245;28;88481;-49
2022/12/18 01:36:53;;;;;;;77.60;59.10;;;10.70;53.70;;;;;;4930134;28;89550;-53
2022/12/18 01:39:19;;;;;;;78.87;58.60;;;10.70;53.70;;;;;;4935622;28;88956;-52
2022/12/18 01:42:04;;;;;;;76.13;58.43;;;10.70;53.70;;;;;;4924381;28;90858;-51
2022/12/18 01:45:07;;;;;;;77.37;58.93;;;10.70;53.60;;;;;;4937241;28;90044;-50
2022/12/18 01:47:41;;;;;;;74.33;57.27;;;10.60;53.60;;;;;;4936818;28;89558;-49
2022/12/18 01:50:18;;;;;;;77.03;58.07;;;10.60;53.60;;;;;;4931810;28;90578;-50
2022/12/18 01:52:48;;;;;;;80.03;58.27;;;10.60;53.60;;;;;;4918215;28;90195;-54
2022/12/18 01:55:18;;;;;;;78.33;58.60;;;10.60;53.50;;;;;;4928986;28;90081;-51
2022/12/18 01:57:44;;;;;;;75.50;57.30;;;10.60;53.30;;;;;;4930094;28;90157;-52
2022/12/18 02:00:20;;;;;;;76.83;57.80;;;10.60;53.30;;;;;;4925093;28;92967;-51
2022/12/18 02:02:47;;;;;;;77.37;57.40;;;10.60;53.40;;;;;;4924671;28;89960;-48
2022/12/18 02:05:17;;;;;;;76.20;57.90;;;10.60;53.50;;;;;;4925925;28;89033;-53
2022/12/18 02:08:07;;;;;;;75.63;58.57;;;10.50;53.30;;;;;;4931965;28;89998;-50
2022/12/18 02:10:44;;;;;;;77.47;58.80;;;10.50;53.40;;;;;;4928048;28;89485;-48
2022/12/18 02:13:54;;;;;;;74.57;58.00;;;10.50;53.30;;;;;;4928823;28;89609;-51
2022/12/18 02:16:50;;;;;;;78.93;58.07;;;10.50;53.30;;;;;;4927409;28;88792;-49
2022/12/18 02:19:49;;;;;;;77.70;58.73;;;10.40;53.50;;;;;;4934882;28;90604;-51
2022/12/18 02:22:36;;;;;;;75.70;58.43;;;10.40;53.40;;;;;;4938262;28;91980;-53
2022/12/18 02:25:37;;;;;;;74.70;57.23;;;10.40;53.50;;;;;;4924340;28;89435;-51
2022/12/18 02:28:08;;;;;;;78.13;58.00;;;10.40;53.20;;;;;;4923616;28;90362;-52
2022/12/18 02:30:37;;;;;;;75.28;57.72;;;10.50;53.10;;;;;;4934609;28;88941;-52
2022/12/18 02:33:06;;;;;;;75.50;56.30;;;10.40;53.10;;;;;;4930390;28;89058;-50
2022/12/18 02:35:33;;;;;;;74.13;56.60;;;10.40;53.10;;;;;;4927988;28;90967;-48
2022/12/18 02:37:59;;;;;;;78.53;58.67;;;10.30;53.20;;;;;;4922688;28;92113;-51
2022/12/18 02:40:27;;;;;;;76.37;57.30;;;10.40;53.20;;;;;;4932935;28;89676;-50
2022/12/18 02:42:52;;;;;;;76.47;58.57;;;10.40;53.20;;;;;;4938357;28;89166;-52
2022/12/18 02:45:18;;;;;;;74.23;57.37;;;10.40;53.10;;;;;;4925636;28;89766;-50
2022/12/18 02:47:47;;;;;;;75.87;56.73;;;10.30;53.20;;;;;;4926242;28;93524;-48
2022/12/18 02:50:37;;;;;;;76.10;57.67;;;10.40;53.20;;;;;;4927427;28;88561;-50
2022/12/18 02:53:12;;;;;;;75.47;57.40;;;10.40;53.20;;;;;;4924083;28;88497;-52
2022/12/18 02:56:02;;;;;;;75.40;57.57;;;10.30;53.10;;;;;;4936350;28;90353;-51
2022/12/18 02:58:49;;;;;;;74.80;57.13;;;10.30;52.90;;;;;;4932840;28;92276;-50
2022/12/18 03:01:27;;;;;;;77.40;58.40;;;10.30;53.20;;;;;;4934275;28;90989;-54
2022/12/18 03:03:59;;;;;;;74.63;57.77;;;10.30;52.90;;;;;;4926548;28;89167;-53
2022/12/18 03:06:40;;;;;;;74.57;56.90;;;10.30;53.00;;;;;;4927115;27;89836;-51
2022/12/18 03:09:11;;;;;;;73.25;56.47;;;10.30;53.00;;;;;;4937245;28;95424;-51
2022/12/18 03:14:29;;;;;;;76.27;57.30;;;10.20;52.80;;;;;;4926457;28;88841;-50
2022/12/18 03:16:59;;;;;;;72.43;56.20;;;10.20;52.90;;;;;;4939498;28;89151;-53
2022/12/18 03:19:29;;;;;;;72.10;56.30;;;10.10;53.00;;;;;;4931916;28;89840;-51
2022/12/18 03:21:57;;;;;;;71.10;56.13;;;10.10;53.20;;;;;;4930063;28;89066;-53
2022/12/18 03:24:26;;;;;;;72.50;56.43;;;10.10;52.70;;;;;;4925583;28;90344;-52
2022/12/18 03:26:57;;;;;;;70.77;56.30;;;10.10;53.00;;;;;;4919748;28;91226;-49
2022/12/18 03:29:28;;;;;;;71.40;55.55;;;10.00;52.90;;;;;;4933243;28;90601;-52
2022/12/18 03:32:00;;;;;;;71.72;56.08;;;9.80;53.70;;;;;;4914386;28;89042;-49
2022/12/18 03:34:34;;;;;;;;;;;9.80;53.70;;;;;;4927862;28;89190;-50
2022/12/18 03:37:03;;;;;;;75.67;59.93;;;9.80;53.70;;;;;;4947162;28;88648;-48
2022/12/18 03:39:29;;;;;;;73.80;58.67;;;9.90;53.80;;;;;;4934258;28;90526;-51
2022/12/18 03:42:16;;;;;;;77.10;57.80;;;9.90;53.70;;;;;;4932152;28;88784;-50
2022/12/18 03:45:05;;;;;;;73.57;57.37;;;9.90;53.70;;;;;;4939291;28;88256;-51
2022/12/18 03:47:43;;;;;;;72.10;56.83;;;10.00;53.40;;;;;;4925005;28;89339;-51
2022/12/18 03:50:35;;;;;;;72.70;56.50;;;10.00;53.30;;;;;;4924978;28;89627;-53
2022/12/18 03:53:39;;;;;;;71.30;56.50;;;10.00;53.20;;;;;;4915514;28;89663;-52
2022/12/18 03:56:07;;;;;;;70.70;56.43;;;10.10;53.00;;;;;;4932112;28;89211;-51
2022/12/18 03:58:36;;;;;;;76.33;58.73;;;10.10;53.10;;;;;;4934062;28;89397;-52
2022/12/18 04:01:08;;;;;;;75.40;57.97;;;10.10;52.90;;;;;;4933293;28;89263;-49
2022/12/18 04:03:35;;;;;;;72.13;56.53;;;10.10;52.90;;;;;;4924360;28;89551;-51
2022/12/18 04:06:02;;;;;;;73.23;55.80;;;10.10;52.70;;;;;;4934144;28;89070;-50
2022/12/18 04:08:28;;;;;;;71.07;56.47;;;10.10;52.60;;;;;;4930941;28;89238;-52
2022/12/18 04:10:54;;;;;;;71.13;56.07;;;10.10;52.50;;;;;;4928993;28;88331;-51
2022/12/18 04:13:38;;;;;;;69.97;55.57;;;10.10;52.50;;;;;;4941017;28;89259;-51
2022/12/18 04:16:05;;;;;;;70.80;56.00;;;10.20;52.40;;;;;;4926984;28;89925;-52
2022/12/18 04:18:31;;;;;;;72.93;55.23;;;10.30;52.50;;;;;;4930917;28;92574;-50
2022/12/18 04:20:56;;;;;;;73.60;55.73;;;10.20;52.10;;;;;;4928923;28;90905;-52
2022/12/18 04:23:22;;;;;;;69.87;55.53;;;10.20;52.10;;;;;;4925434;28;89592;-50
2022/12/18 04:25:48;;;;;;;69.20;55.17;;;10.30;52.00;;;;;;4936759;28;94818;-49
2022/12/18 04:28:13;;;;;;;71.20;55.70;;;10.30;52.00;;;;;;4935363;28;90744;-49
2022/12/18 04:30:39;;;;;;;71.20;54.83;;;10.30;51.80;;;;;;4932573;28;89444;-50
2022/12/18 04:33:09;;;;;;;69.00;55.03;;;10.20;51.90;;;;;;4935743;28;89196;-53
2022/12/18 04:35:35;;;;;;;70.43;54.73;;;10.30;52.00;;;;;;4937275;28;89030;-50
2022/12/18 04:38:01;;;;;;;69.63;54.77;;;10.30;51.90;;;;;;4934089;28;97556;-52
2022/12/18 04:40:27;;;;;;;68.60;55.03;;;10.30;51.80;;;;;;4927835;28;90563;-51
2022/12/18 04:42:52;;;;;;;69.77;54.67;;;10.30;51.80;;;;;;4940638;28;90475;-51
2022/12/18 04:45:18;;;;;;;66.57;53.47;;;10.30;52.00;;;;;;4934158;28;89097;-54
2022/12/18 04:47:44;;;;;;;70.23;54.17;;;10.30;51.70;;;;;;4928187;28;89412;-53
2022/12/18 04:50:09;;;;;;;68.03;53.47;;;10.40;51.90;;;;;;4924645;28;89029;-53
2022/12/18 04:52:35;;;;;;;70.17;54.50;;;10.30;51.70;;;;;;4928486;28;89146;-56
2022/12/18 04:55:01;;;;;;;67.77;53.90;;;10.40;51.80;;;;;;4930876;28;92788;-49
2022/12/18 04:57:27;;;;;;;68.80;53.97;;;10.40;51.60;;;;;;4927982;28;91759;-53
2022/12/18 04:59:52;;;;;;;68.53;55.10;;;10.40;51.70;;;;;;4924688;28;90419;-50
2022/12/18 05:02:18;;;;;;;67.73;53.63;;;10.40;51.60;;;;;;4930559;28;88945;-49
2022/12/18 05:04:43;;;;;;;66.23;53.30;;;10.30;51.70;;;;;;4925492;28;89490;-51
2022/12/18 05:07:09;;;;;;;69.17;54.10;;;10.40;51.60;;;;;;4929124;28;91682;-48
2022/12/18 05:09:35;;;;;;;67.13;53.47;;;10.30;51.70;;;;;;4940833;28;90505;-48
2022/12/18 05:12:00;;;;;;;66.70;53.33;;;10.30;51.70;;;;;;4930739;28;91397;-50
2022/12/18 05:14:27;;;;;;;67.53;53.83;;;10.30;51.70;;;;;;4923069;28;93199;-50
2022/12/18 05:16:53;;;;;;;66.67;53.03;;;10.30;51.50;;;;;;4926434;28;90960;-49
2022/12/18 05:19:18;;;;;;;67.93;53.40;;;10.30;51.70;;;;;;4933126;28;89618;-53
2022/12/18 05:21:44;;;;;;;65.30;52.77;;;10.30;51.70;;;;;;4928071;28;91570;-52
2022/12/18 05:24:10;;;;;;;67.27;53.53;;;10.20;51.80;;;;;;4926711;28;89340;-51
2022/12/18 05:26:35;;;;;;;67.03;53.70;;;10.20;51.70;;;;;;4928544;28;89203;-49
2022/12/18 05:29:01;;;;;;;67.97;54.23;;;10.20;51.90;;;;;;4934545;28;89813;-49
2022/12/18 05:31:26;;;;;;;67.23;53.80;;;10.20;52.00;;;;;;4932793;28;90614;-50
2022/12/18 05:33:52;;;;;;;69.00;54.90;;;10.20;51.80;;;;;;4930287;28;89121;-51
2022/12/18 05:36:18;;;;;;;69.20;53.33;;;10.20;51.80;;;;;;4933615;28;90940;-51
2022/12/18 05:38:43;;;;;;;69.07;53.47;;;10.20;51.70;;;;;;4923392;28;89461;-53
2022/12/18 05:41:09;;;;;;;68.27;53.03;;;10.30;51.50;;;;;;4925281;28;91060;-49
2022/12/18 05:43:37;;;;;;;67.40;53.00;;;10.30;51.50;;;;;;4929521;28;89945;-51
2022/12/18 05:46:08;;;;;;;66.23;52.83;;;10.30;51.30;;;;;;4930528;28;95638;-52
2022/12/18 05:48:33;;;;;;;67.83;52.53;;;10.40;51.40;;;;;;4928553;28;94470;-52
2022/12/18 05:51:11;;;;;;;66.17;53.20;;;10.40;51.10;;;;;;4938284;28;89320;-52
2022/12/18 05:53:38;;;;;;;66.10;53.67;;;10.40;51.10;;;;;;4926222;28;91719;-51
2022/12/18 05:56:10;;;;;;;65.63;52.40;;;10.50;51.20;;;;;;4933306;28;93278;-51
2022/12/18 05:58:36;;;;;;;67.30;52.27;;;10.50;51.20;;;;;;4922648;28;90177;-50
2022/12/18 06:01:24;;;;;;;67.33;52.83;;;10.40;51.30;;;;;;4930726;28;89037;-52
2022/12/18 06:03:50;;;;;;;65.73;51.70;;;10.50;51.20;;;;;;4924836;28;89178;-51
2022/12/18 06:06:25;;;;;;;62.93;51.70;;;10.40;51.10;;;;;;4939761;28;89663;-49
2022/12/18 06:08:52;;;;;;;64.47;51.83;;;10.50;51.20;;;;;;4923065;28;90656;-51
2022/12/18 06:11:21;;;;;;;65.00;51.73;;;10.50;50.80;;;;;;4933179;28;88792;-50
2022/12/18 06:13:49;;;;;;;64.67;51.93;;;10.60;50.90;;;;;;4920954;28;88272;-55
2022/12/18 06:16:14;;;;;;;63.27;52.00;;;10.60;50.70;;;;;;4924206;28;92640;-50
2022/12/18 06:18:40;;;;;;;65.23;52.43;;;10.70;50.70;;;;;;4924931;28;90907;-53
2022/12/18 06:21:06;;;;;;;64.07;51.27;;;10.60;50.60;;;;;;4932152;28;90232;-50
2022/12/18 06:23:31;;;;;;;63.30;51.47;;;10.60;50.60;;;;;;4925901;28;89210;-49
2022/12/18 06:25:57;;;;;;;66.00;51.50;;;10.60;50.70;;;;;;4930227;28;89002;-49
2022/12/18 06:28:23;;;;;;;63.77;51.23;;;10.60;50.80;;;;;;4935233;28;89146;-53
2022/12/18 06:30:49;;;;;;;63.70;51.13;;;10.60;50.90;;;;;;4925319;28;90410;-49
2022/12/18 06:33:16;;;;;;;63.37;51.30;;;10.60;50.90;;;;;;4931850;28;89109;-52
2022/12/18 06:35:42;;;;;;;65.97;51.60;;;10.60;50.80;;;;;;4928461;28;90262;-50
2022/12/18 06:38:08;;;;;;;65.37;51.37;;;10.60;50.90;;;;;;4926282;28;93810;-49
2022/12/18 06:40:33;;;;;;;62.20;51.33;;;10.50;50.90;;;;;;4925827;28;90083;-50
2022/12/18 06:42:59;;;;;;;61.83;51.07;;;10.50;51.10;;;;;;4926994;28;89146;-50
2022/12/18 06:45:25;;;;;;;64.63;51.20;;;10.40;51.40;;;;;;4933161;28;90436;-52
2022/12/18 06:47:51;;;;;;;62.00;50.53;;;10.40;52.00;;;;;;4928618;28;89446;-48
2022/12/18 06:50:17;;;;;;;62.40;50.73;;;10.30;51.40;;;;;;4929631;28;89589;-53
2022/12/18 06:52:43;;;;;;;62.17;51.50;;;10.30;51.70;;;;;;4930740;28;90330;-51
2022/12/18 06:55:09;;;;;;;62.27;50.47;;;10.30;51.70;;;;;;4933562;28;90037;-50
2022/12/18 06:57:35;;;;;;;62.10;51.10;;;10.20;51.80;;;;;;4923073;28;89598;-53
2022/12/18 07:00:02;;;;;;;61.03;50.47;;;10.20;51.80;;;;;;4923832;28;89044;-54
2022/12/18 07:02:28;;;;;;;62.70;51.63;;;10.20;51.80;;;;;;4928323;28;88667;-51
2022/12/18 07:04:53;;;;;;;62.23;50.87;;;10.20;51.80;;;;;;4942726;28;89335;-48
2022/12/18 07:07:19;;;;;;;60.67;49.53;;;10.20;52.00;;;;;;4920288;28;90441;-51
2022/12/18 07:09:45;;;;;;;62.77;51.03;;;10.20;52.20;;;;;;4921033;28;91258;-53
2022/12/18 07:12:10;;;;;;;61.27;50.20;;;10.20;52.10;;;;;;4932401;28;89292;-48
2022/12/18 07:14:36;;;;;;;60.80;50.00;;;10.10;52.10;;;;;;4928771;28;90241;-49
2022/12/18 07:17:01;;;;;;;62.47;50.07;;;10.10;52.30;;;;;;4924959;28;89896;-50
2022/12/18 07:19:27;;;;;;;62.40;50.73;;;10.10;52.10;;;;;;4934326;28;89413;-53
2022/12/18 07:21:53;;;;;;;61.67;50.70;;;10.10;52.20;;;;;;4930553;28;91087;-52
2022/12/18 07:24:18;;;;;;;59.83;49.50;;;10.10;52.00;;;;;;4937523;28;90405;-52
2022/12/18 07:26:47;;;;;;;62.03;51.00;;;10.10;52.10;;;;;;4930860;28;91444;-52
2022/12/18 07:29:13;;;;;;;60.57;49.73;;;10.10;52.10;;;;;;4931607;28;89249;-49
2022/12/18 07:31:38;;;;;;;63.20;50.13;;;10.10;52.10;;;;;;4931605;28;89033;-50
2022/12/18 07:34:04;;;;;;;61.23;50.33;;;10.20;52.10;;;;;;4939413;28;90937;-52
2022/12/18 07:36:30;;;;;;;61.90;50.70;;;10.20;52.00;;;;;;4928950;28;90891;-48
2022/12/18 07:38:56;;;;;;;60.07;50.30;;;10.20;52.00;;;;;;4935120;28;88897;-52
2022/12/18 07:41:21;;;;;;;61.03;50.67;;;10.20;51.90;;;;;;4926973;28;91570;-48
2022/12/18 07:43:47;;;;;;;61.17;50.30;;;10.20;52.10;;;;;;4928115;28;89650;-52
2022/12/18 07:46:14;;;;;;;61.07;50.47;;;10.20;52.10;;;;;;4934141;28;89689;-52
2022/12/18 07:48:41;;;;;;;61.40;51.03;;;10.20;51.90;;;;;;4934881;28;89279;-51
2022/12/18 07:51:08;;;;;;;62.83;50.53;;;10.20;52.00;;;;;;4930884;28;88302;-53
2022/12/18 07:53:35;;;;;;;61.97;50.53;;;10.30;51.70;;;;;;4928791;28;89754;-51
2022/12/18 07:56:03;;;;;;;65.97;52.33;;;10.30;51.70;;;;;;4924966;28;91190;-49
2022/12/18 07:58:30;;;;;;;63.27;50.57;;;10.40;51.60;;;;;;4939987;28;90670;-51
2022/12/18 08:01:09;;;;;;;63.80;50.90;;;10.40;51.20;;;;;;4932485;28;90619;-49
2022/12/18 08:03:36;;;;;;;61.80;50.37;;;10.40;51.10;;;;;;4926931;28;93528;-47
2022/12/18 08:06:03;;;;;;;62.07;50.80;;;10.40;51.10;;;;;;4924057;28;89510;-51
2022/12/18 08:08:29;;;;;;;62.90;50.33;;;10.40;51.10;;;;;;4936247;28;90315;-49
2022/12/18 08:10:56;;;;;;;62.20;50.83;;;10.40;51.70;;;;;;4923227;28;90291;-48
2022/12/18 08:13:22;;;;;;;61.97;50.67;;;10.30;51.30;;;;;;4923666;28;89165;-50
2022/12/18 08:16:02;;;;;;;62.13;50.57;;;10.30;51.30;;;;;;4932165;28;89401;-51
2022/12/18 08:18:28;;;;;;;60.27;50.23;;;10.40;51.30;;;;;;4937338;28;89422;-51
2022/12/18 08:20:55;;;;;;;61.83;50.07;;;10.40;51.40;;;;;;4926813;28;90444;-53
2022/12/18 08:23:21;;;;;;;61.90;50.67;;;10.40;51.30;;;;;;4929614;28;91419;-52
2022/12/18 08:25:46;;;;;;;62.63;51.13;;;10.40;51.10;;;;;;4928917;28;90014;-51
2022/12/18 08:28:12;;;;;;;64.57;50.83;;;10.40;51.20;;;;;;4936999;28;90170;-52
2022/12/18 08:30:38;;;;;;;61.93;50.67;;;10.30;51.10;;;;;;4927573;28;91765;-50
2022/12/18 08:33:03;;;;;;;63.47;50.83;;;10.30;51.00;;;;;;4922042;28;90133;-50
2022/12/18 08:35:29;;;;;;;65.00;52.43;;;10.30;51.20;;;;;;4929642;28;88756;-49
2022/12/18 08:37:55;;;;;;;62.10;51.27;;;10.30;51.00;;;;;;4935022;28;91136;-50
2022/12/18 08:40:20;;;;;;;65.43;51.97;;;10.10;51.30;;;;;;4935322;28;88919;-50
2022/12/18 08:45:33;;;;;;;69.33;55.13;;;10.20;51.60;;;;;;4942672;28;97796;-51
2022/12/18 08:47:58;;;;;;;66.73;54.23;;;10.20;51.40;;;;;;4927148;28;90793;-51
2022/12/18 08:50:24;;;;;;;68.60;54.33;;;10.30;51.30;;;;;;4941554;28;89388;-53
2022/12/18 08:52:50;;;;;;;64.97;52.97;;;10.40;51.10;;;;;;4921847;28;89807;-51
2022/12/18 08:55:15;;;;;;;68.27;53.23;;;10.40;50.90;;;;;;4928686;28;90019;-50
2022/12/18 08:57:41;;;;;;;65.60;53.30;;;10.50;50.70;;;;;;4929468;28;91271;-49
2022/12/18 09:00:07;;;;;;;68.30;53.50;;;10.50;50.60;;;;;;4925158;28;89197;-51
2022/12/18 09:02:33;;;;;;;68.53;53.23;;;10.50;50.40;;;;;;4920404;28;93407;-52
2022/12/18 09:04:59;;;;;;;66.97;52.90;;;10.60;50.20;;;;;;4957309;28;89554;-51
2022/12/18 09:07:24;;;;;;;68.77;53.93;;;10.60;50.20;;;;;;4922908;28;88939;-51
2022/12/18 09:09:50;;;;;;;72.50;55.30;;;10.70;50.10;;;;;;4924301;28;90684;-49
2022/12/18 09:12:15;;;;;;;71.43;54.63;;;10.60;50.00;;;;;;4920255;28;91410;-50
2022/12/18 09:14:41;;;;;;;71.53;53.93;;;10.60;50.30;;;;;;4931004;28;89799;-49
2022/12/18 09:17:07;;;;;;;76.90;54.40;;;10.70;50.40;;;;;;4926876;28;92937;-49
2022/12/18 09:19:33;;;;;;;71.27;54.23;;;10.70;50.70;;;;;;4917768;28;91494;-50
2022/12/18 09:21:58;;;;;;;75.80;54.90;;;10.80;50.70;;;;;;4925393;28;90384;-48
2022/12/18 09:24:24;;;;;;;71.90;54.67;;;10.80;50.60;;;;;;4933235;28;91453;-52
2022/12/18 09:26:54;;;;;;;70.87;54.33;;;10.90;50.60;;;;;;4942031;28;90114;-51
2022/12/18 09:29:20;;;;;;;74.53;54.47;;;10.90;50.80;;;;;;4930523;28;88619;-49
2022/12/18 09:31:46;;;;;;;74.00;54.63;;;10.90;51.00;;;;;;4936897;28;92641;-50
2022/12/18 09:34:12;;;;;;;73.27;54.47;;;10.90;51.30;;;;;;4943834;28;91803;-52
2022/12/18 09:36:38;;;;;;;71.17;54.00;;;11.00;51.40;;;;;;4922352;28;91033;-52
2022/12/18 09:39:04;;;;;;;75.37;55.60;;;11.00;51.50;;;;;;4925266;28;89307;-50
2022/12/18 09:41:41;;;;;;;75.23;54.90;;;10.90;51.40;;;;;;4920147;28;91607;-53
2022/12/18 09:44:25;;;;;;;73.93;54.37;;;10.90;51.70;;;;;;4925088;28;90113;-49
2022/12/18 09:47:09;;;;;;;72.13;54.17;;;11.00;51.60;;;;;;4914613;28;91247;-48
2022/12/18 09:49:41;;;;;;;75.83;53.40;;;11.40;50.70;;;;;;4924361;28;89603;-48
2022/12/18 09:52:19;;;;;;;74.13;53.83;;;11.70;50.20;;;;;;4927070;28;90175;-50
2022/12/18 09:55:18;;;;;;;77.77;53.87;;;11.70;49.80;;;;;;4916129;28;90076;-52
2022/12/18 09:58:07;;;;;;;74.60;53.57;;;11.90;50.50;;;;;;4916626;28;91214;-53
2022/12/18 10:00:33;;;;;;;75.77;53.20;;;12.10;50.00;;;;;;4918009;28;91459;-54
2022/12/18 10:03:08;;;;;;;77.93;54.93;;;12.20;50.10;;;;;;4917866;28;92290;-56
2022/12/18 10:05:51;;;;;;;74.53;54.00;;;12.40;50.00;;;;;;4921944;28;90592;-50
2022/12/18 10:08:49;;;;;;;74.23;54.03;;;12.20;49.60;;;;;;4925882;28;91181;-51
2022/12/18 10:11:32;;;;;;;72.80;53.37;;;12.20;49.70;;;;;;4927014;28;89613;-52
2022/12/18 10:14:03;;;;;;;74.87;54.33;;;12.20;49.60;;;;;;4922655;28;89852;-56
2022/12/18 10:16:32;;;;;;;;;;;12.30;49.60;;;;;;4921183;28;94698;-51
2022/12/18 10:19:18;;;;;;;80.77;54.60;;;12.30;50.20;;;;;;4928038;28;89653;-48
2022/12/18 10:22:10;;;;;;;71.83;53.47;;;12.30;50.40;;;;;;4930174;28;89193;-49
2022/12/18 10:24:41;;;;;;;74.27;53.70;;;12.40;49.90;;;;;;4920813;28;89995;-49
2022/12/18 10:27:21;;;;;;;72.63;53.53;;;12.40;49.90;;;;;;4922613;28;90040;-46
2022/12/18 10:29:47;;;;;;;75.65;54.50;;;12.30;49.90;;;;;;4923243;28;91197;-47
2022/12/18 10:32:21;;;;;;;76.07;54.30;;;12.40;49.80;;;;;;4931848;28;90048;-50
2022/12/18 10:34:49;;;;;;;69.38;53.45;;;12.40;50.00;;;;;;4929677;28;91071;-50
2022/12/18 10:37:20;;;;;;;76.70;54.25;;;12.40;49.90;;;;;;4920294;28;96173;-52
2022/12/18 10:40:13;;;;;;;74.75;53.45;;;12.40;50.10;;;;;;4923208;28;96044;-47
2022/12/18 10:42:40;;;;;;;72.82;54.45;;;12.40;50.10;;;;;;4928666;28;89901;-58
2022/12/18 10:45:15;;;;;;;74.28;55.40;;;12.40;50.20;;;;;;4921165;28;90937;-48
2022/12/18 10:47:48;;;;;;;75.40;55.17;;;12.40;50.50;;;;;;4946021;28;89487;-50
2022/12/18 10:50:32;;;;;;;73.57;54.43;;;12.30;49.70;;;;;;4922381;28;90472;-52
2022/12/18 10:53:00;;;;;;;75.03;53.85;;;12.30;49.60;;;;;;4927853;28;90998;-48
2022/12/18 10:55:33;;;;;;;75.32;53.72;;;12.30;49.50;;;;;;4918645;28;90339;-49
2022/12/18 10:58:20;;;;;;;73.50;54.47;;;12.40;49.30;;;;;;4923758;28;90966;-53
2022/12/18 11:01:11;;;;;;;75.03;54.78;;;12.50;49.40;;;;;;4923065;28;92345;-49
2022/12/18 11:04:05;;;;;;;75.97;54.30;;;12.50;49.40;;;;;;4926833;28;91027;-52
2022/12/18 11:06:33;;;;;;;75.68;55.03;;;12.50;49.40;;;;;;4925398;28;90322;-54
2022/12/18 11:09:05;;;;;;;74.45;54.88;;;12.60;49.10;;;;;;4932151;28;93245;-52
2022/12/18 11:11:32;;;;;;;75.80;54.50;;;12.70;49.10;;;;;;4928724;28;89969;-52
2022/12/18 11:14:18;;;;;;;75.35;55.65;;;12.70;49.00;;;;;;4925669;28;88967;-53
2022/12/18 11:16:46;;;;;;;72.85;54.00;;;12.70;49.20;;;;;;4928962;28;92530;-58
2022/12/18 11:19:24;;;;;;;77.97;54.78;;;12.80;49.20;;;;;;4958982;28;90228;-53
2022/12/18 11:21:50;;;;;;;81.03;55.25;;;12.80;49.30;;;;;;4924594;28;90651;-49
2022/12/18 11:24:26;;;;;;;76.90;54.63;;;12.80;49.50;;;;;;4928044;28;89644;-53
2022/12/18 11:26:52;;;;;;;77.82;53.40;;;12.80;49.30;;;;;;4927081;28;89862;-54
2022/12/18 11:29:23;;;;;;;73.50;54.80;;;12.80;49.50;;;;;;4928972;28;90053;-48
2022/12/18 11:31:49;;;;;;;75.75;56.55;;;12.80;49.60;;;;;;4924302;28;91582;-53
2022/12/18 11:34:27;;;;;;;79.47;56.53;;;12.80;49.80;;;;;;4926411;28;90758;-51
2022/12/18 11:36:54;;;;;;;84.43;56.13;;;12.80;49.80;;;;;;4910925;28;91615;-53
2022/12/18 11:39:50;;;;;;;75.30;56.03;;;12.80;49.90;;;;;;4922495;28;90851;-50
2022/12/18 11:42:28;;;;;;;83.05;56.15;;;12.60;50.10;;;;;;4931693;28;90572;-50
2022/12/18 11:45:02;;;;;;;77.82;56.33;;;12.70;50.20;;;;;;4931818;28;89578;-54
2022/12/18 11:47:31;;;;;;;76.45;56.65;;;12.70;50.00;;;;;;4929257;28;90695;-54
2022/12/18 11:50:00;;;;;;;79.13;56.38;;;12.70;49.80;;;;;;4928490;28;90502;-51
2022/12/18 11:52:38;;;;;;;74.97;56.08;;;12.70;49.60;;;;;;4928754;28;90121;-49
2022/12/18 11:55:16;;;;;;;77.72;57.22;;;12.70;49.90;;;;;;4924851;28;92347;-53
2022/12/18 11:57:55;;;;;;;79.65;58.40;;;12.80;50.40;;;;;;4923000;28;91320;-53
2022/12/18 12:00:22;;;;;;;78.82;56.90;;;12.80;50.00;;;;;;4921467;28;90205;-50
2022/12/18 12:03:09;;;;;;;77.18;56.70;;;12.80;50.00;;;;;;4929507;28;95825;-53
2022/12/18 12:05:53;;;;;;;77.93;56.53;;;12.80;50.40;;;;;;4935743;28;88589;-57
2022/12/18 12:08:31;;;;;;;76.10;56.58;;;12.90;50.40;;;;;;4933236;28;90535;-48
2022/12/18 12:10:57;;;;;;;79.43;57.05;;;12.80;50.90;;;;;;4933813;28;90335;-51
2022/12/18 12:13:44;;;;;;;77.53;56.35;;;12.90;50.80;;;;;;4924147;28;91505;-48
2022/12/18 12:16:36;;;;;;;75.00;56.03;;;12.90;50.90;;;;;;4921645;28;90292;-55
2022/12/18 12:19:22;;;;;;;89.20;58.63;;;12.90;51.10;;;;;;4914197;28;90744;-50
2022/12/18 12:22:06;;;;;;;104.53;60.42;;;12.90;54.00;;;;;;4922964;28;90413;-55
2022/12/18 12:24:57;;;;;;;89.25;58.97;;;12.90;59.50;;;;;;4920120;28;92674;-54
2022/12/18 12:27:48;;;;;;;83.72;58.17;;;13.00;55.90;;;;;;4929511;28;95137;-50
2022/12/18 12:30:27;;;;;;;80.47;57.67;;;13.50;53.60;;;;;;4927465;28;91373;-51
2022/12/18 12:33:08;;;;;;;81.10;56.78;;;13.60;53.90;;;;;;4924926;28;91970;-51
2022/12/18 12:36:02;;;;;;;80.55;57.70;;;13.60;52.30;;;;;;4925394;28;89998;-53
2022/12/18 12:38:49;;;;;;;86.90;57.72;;;13.60;53.00;;;;;;4929312;28;90290;-57
2022/12/18 12:44:12;;;;;;;77.85;57.22;;;13.50;53.50;;;;;;4928702;28;90217;-54
2022/12/18 12:46:41;;;;;;;85.35;56.33;;;13.40;55.80;;;;;;4926396;28;91582;-49
2022/12/18 12:49:18;;;;;;;80.65;56.95;;;13.40;56.50;;;;;;4932649;28;92211;-51
2022/12/18 12:51:47;;;;;;;81.18;57.45;;;13.40;56.90;;;;;;4923305;28;90483;-56
2022/12/18 12:54:25;;;;;;;78.22;56.45;;;13.40;56.60;;;;;;4915649;28;89818;-56
2022/12/18 12:57:01;;;;;;;82.03;57.45;;;13.50;57.00;;;;;;4926608;28;92438;-51